createdAt,value
2018-12-08T00:02:09.033Z,98272.70
2018-12-08T00:04:36.150Z,98272.57
2018-12-08T00:07:02.096Z,98278.84
2018-12-08T00:09:28.088Z,98281.48
2018-12-08T00:11:54.043Z,98277.86
2018-12-08T00:14:20.043Z,98278.77
2018-12-08T00:16:46.027Z,98265.91
2018-12-08T00:21:44.471Z,98277.59
2018-12-08T00:24:10.452Z,98281.64
2018-12-08T00:26:36.473Z,98293.94
2018-12-08T00:29:02.463Z,98307.23
2018-12-08T00:31:28.453Z,98354.47
2018-12-08T00:33:54.402Z,98391.64
2018-12-08T00:36:20.387Z,98392.22
2018-12-08T00:38:46.383Z,98404.48
2018-12-08T00:41:12.343Z,98402.77
2018-12-08T00:43:38.308Z,98426.45
2018-12-08T00:46:04.316Z,98444.19
2018-12-08T00:48:30.280Z,98461.62
2018-12-08T00:50:56.952Z,98470.11
2018-12-08T00:53:22.935Z,98468.75
2018-12-08T00:55:48.943Z,98491.36
2018-12-08T00:58:14.905Z,98517.92
2018-12-08T01:00:40.884Z,98521.45
2018-12-08T01:05:39.348Z,98540.08
2018-12-08T01:08:05.293Z,98537.58
2018-12-08T01:10:31.744Z,98537.38
2018-12-08T01:12:57.764Z,98516.67
2018-12-08T01:15:23.743Z,98527.27
2018-12-08T01:17:50.396Z,98544.75
2018-12-08T01:20:16.368Z,98542.09
2018-12-08T01:22:42.305Z,98527.70
2018-12-08T01:25:08.287Z,98517.92
2018-12-08T01:27:34.244Z,98533.20
2018-12-08T01:30:00.238Z,98547.53
2018-12-08T01:32:26.197Z,98556.73
2018-12-08T01:34:52.210Z,98561.80
2018-12-08T01:37:18.161Z,98566.06
2018-12-08T01:39:44.116Z,98562.40
2018-12-08T01:42:10.107Z,98569.31
2018-12-08T01:44:36.064Z,98584.88
2018-12-08T01:47:02.020Z,98587.66
2018-12-08T01:49:28.003Z,98588.70
2018-12-08T01:51:53.984Z,98580.98
2018-12-08T01:54:20.021Z,98583.52
2018-12-08T01:56:45.998Z,98583.36
2018-12-08T01:59:11.968Z,98576.08
2018-12-08T02:01:37.936Z,98586.81
2018-12-08T02:04:03.897Z,98585.26
2018-12-08T02:06:29.885Z,98575.66
2018-12-08T02:08:55.851Z,98589.77
2018-12-08T02:11:25.027Z,98594.64
2018-12-08T02:13:49.841Z,98594.84
2018-12-08T02:16:15.812Z,98618.83
2018-12-08T02:18:41.785Z,98615.36
2018-12-08T02:21:07.760Z,98624.05
2018-12-08T02:23:33.704Z,98619.81
2018-12-08T02:25:59.703Z,98615.94
2018-12-08T02:28:25.663Z,98619.01
2018-12-08T02:30:51.621Z,98631.13
2018-12-08T02:33:17.578Z,98621.72
2018-12-08T02:35:43.556Z,98622.81
2018-12-08T02:38:09.491Z,98634.81
2018-12-08T02:40:35.781Z,98629.09
2018-12-08T02:43:01.747Z,98653.42
2018-12-08T02:45:27.770Z,98661.30
2018-12-08T02:47:53.729Z,98665.73
2018-12-08T02:50:19.687Z,98664.05
2018-12-08T02:52:45.732Z,98680.34
2018-12-08T02:55:11.685Z,98686.85
2018-12-08T02:57:37.651Z,98697.43
2018-12-08T03:00:03.656Z,98709.34
2018-12-08T03:02:29.656Z,98723.71
2018-12-08T03:04:55.602Z,98727.92
2018-12-08T03:07:21.568Z,98724.01
2018-12-08T03:09:47.524Z,98721.34
2018-12-08T03:12:13.488Z,98729.88
2018-12-08T03:14:40.742Z,98719.95
2018-12-08T03:17:06.727Z,98727.02
2018-12-08T03:19:32.684Z,98742.27
2018-12-08T03:21:58.636Z,98746.08
2018-12-08T03:24:24.596Z,98751.83
2018-12-08T03:26:50.575Z,98753.91
2018-12-08T03:29:16.555Z,98759.42
2018-12-08T03:31:42.520Z,98762.41
2018-12-08T03:34:08.461Z,98768.96
2018-12-08T03:36:34.431Z,98766.66
2018-12-08T03:39:00.407Z,98774.66
2018-12-08T03:41:26.412Z,98783.75
2018-12-08T03:43:52.370Z,98783.90
2018-12-08T03:46:18.360Z,98793.69
2018-12-08T03:48:44.333Z,98802.45
2018-12-08T03:51:10.340Z,98817.00
2018-12-08T03:53:36.295Z,98817.16
2018-12-08T03:56:02.265Z,98826.13
2018-12-08T03:58:28.277Z,98842.57
2018-12-08T04:00:54.261Z,98849.95
2018-12-08T04:03:20.215Z,98846.11
2018-12-08T04:05:46.177Z,98860.50
2018-12-08T04:08:12.143Z,98857.74
2018-12-08T04:10:38.092Z,98867.63
2018-12-08T04:13:04.036Z,98873.37
2018-12-08T04:15:31.086Z,98886.84
2018-12-08T04:17:57.111Z,98885.94
2018-12-08T04:20:23.080Z,98888.22
2018-12-08T04:22:49.052Z,98883.52
2018-12-08T04:25:15.013Z,98889.53
2018-12-08T04:27:41.005Z,98888.33
2018-12-08T04:30:06.952Z,98883.88
2018-12-08T04:32:32.932Z,98893.50
2018-12-08T04:34:58.910Z,98907.95
2018-12-08T04:37:24.884Z,98907.41
2018-12-08T04:39:50.837Z,98908.91
2018-12-08T04:42:16.821Z,98901.88
2018-12-08T04:44:42.765Z,98904.97
2018-12-08T04:47:08.739Z,98911.30
2018-12-08T04:49:34.711Z,98915.38
2018-12-08T04:52:00.709Z,98908.41
2018-12-08T04:54:26.683Z,98907.81
2018-12-08T04:56:52.661Z,98906.78
2018-12-08T04:59:18.628Z,98910.00
2018-12-08T05:01:44.620Z,98905.20
2018-12-08T05:04:10.602Z,98901.28
2018-12-08T05:06:36.587Z,98902.22
2018-12-08T05:09:02.570Z,98906.83
2018-12-08T05:11:28.541Z,98899.31
2018-12-08T05:13:54.535Z,98899.03
2018-12-08T05:16:20.487Z,98895.58
2018-12-08T05:18:46.449Z,98904.59
2018-12-08T05:21:12.420Z,98901.91
2018-12-08T05:23:38.395Z,98904.09
2018-12-08T05:26:04.351Z,98897.41
2018-12-08T05:28:30.334Z,98901.83
2018-12-08T05:30:57.008Z,98897.72
2018-12-08T05:33:23.000Z,98902.16
2018-12-08T05:35:48.977Z,98905.02
2018-12-08T05:38:14.955Z,98914.66
2018-12-08T05:40:40.918Z,98918.95
2018-12-08T05:43:06.892Z,98902.06
2018-12-08T05:45:32.887Z,98905.70
2018-12-08T05:47:58.864Z,98918.02
2018-12-08T05:50:24.820Z,98905.65
2018-12-08T05:52:50.816Z,98909.28
2018-12-08T05:55:16.810Z,98910.81
2018-12-08T05:57:42.816Z,98915.02
2018-12-08T06:00:08.773Z,98913.06
2018-12-08T06:02:34.764Z,98912.57
2018-12-08T06:05:00.731Z,98910.73
2018-12-08T06:07:26.710Z,98910.31
2018-12-08T06:09:52.673Z,98912.39
2018-12-08T06:12:18.651Z,98913.94
2018-12-08T06:14:44.647Z,98914.28
2018-12-08T06:17:10.598Z,98909.70
2018-12-08T06:19:36.558Z,98912.05
2018-12-08T06:22:02.523Z,98912.69
2018-12-08T06:24:28.488Z,98917.98
2018-12-08T06:26:54.459Z,98917.14
2018-12-08T06:29:20.410Z,98919.56
2018-12-08T06:31:46.368Z,98920.43
2018-12-08T06:34:12.307Z,98925.05
2018-12-08T06:36:38.248Z,98914.66
2018-12-08T06:39:04.193Z,98907.91
2018-12-08T06:41:30.146Z,98913.84
2018-12-08T06:43:56.109Z,98915.40
2018-12-08T06:46:22.060Z,98906.86
2018-12-08T06:48:48.021Z,98915.34
2018-12-08T06:51:14.034Z,98910.89
2018-12-08T06:53:40.008Z,98911.00
2018-12-08T06:56:05.963Z,98910.05
2018-12-08T06:58:31.955Z,98909.00
2018-12-08T07:00:57.946Z,98914.82
2018-12-08T07:03:23.955Z,98929.01
2018-12-08T07:05:49.972Z,98917.93
2018-12-08T07:13:20.217Z,98913.06
2018-12-08T07:15:46.177Z,98912.08
2018-12-08T07:18:12.173Z,98914.73
2018-12-08T07:25:43.880Z,98914.00
2018-12-08T07:28:09.821Z,98906.03
2018-12-08T07:30:35.785Z,98896.24
2018-12-08T07:33:01.772Z,98897.39
2018-12-08T07:35:27.852Z,98895.33
2018-12-08T07:40:26.349Z,98909.02
2018-12-08T07:42:52.347Z,98900.58
2018-12-08T07:45:18.373Z,98898.17
2018-12-08T07:47:44.348Z,98897.47
2018-12-08T07:50:10.355Z,98901.78
2018-12-08T07:52:37.018Z,98902.99
2018-12-08T07:55:03.020Z,98885.03
2018-12-08T07:57:28.960Z,98891.45
2018-12-08T08:02:26.137Z,98887.47
2018-12-08T08:04:52.342Z,98887.80
2018-12-08T08:07:18.397Z,98888.32
2018-12-08T08:09:44.384Z,98878.89
2018-12-08T08:12:10.361Z,98879.66
2018-12-08T08:14:36.474Z,98877.73
2018-12-08T08:17:02.578Z,98874.80
2018-12-08T08:19:28.624Z,98866.27
2018-12-08T08:21:54.716Z,98872.30
2018-12-08T08:24:20.755Z,98871.55
2018-12-08T08:26:47.851Z,98857.59
2018-12-08T08:31:45.804Z,98866.27
2018-12-08T08:34:11.806Z,98855.63
2018-12-08T08:36:37.803Z,98856.10
2018-12-08T08:39:04.017Z,98854.66
2018-12-08T08:41:30.000Z,98863.22
2018-12-08T08:43:56.283Z,98862.80
2018-12-08T08:46:23.063Z,98863.81
2018-12-08T08:48:49.104Z,98857.05
2018-12-08T08:51:15.113Z,98860.07
2018-12-08T08:53:41.061Z,98854.95
2018-12-08T08:56:07.255Z,98852.15
2018-12-08T08:58:33.252Z,98856.48
2018-12-08T09:01:01.245Z,98841.05
2018-12-08T09:03:27.206Z,98838.41
2018-12-08T09:05:53.382Z,98829.29
2018-12-08T09:08:20.096Z,98853.90
2018-12-08T09:10:46.203Z,98841.75
2018-12-08T09:13:12.168Z,98847.67
2018-12-08T09:15:38.124Z,98825.32
2018-12-08T09:18:04.097Z,98826.87
2018-12-08T09:20:30.093Z,98823.88
2018-12-08T09:22:56.070Z,98821.80
2018-12-08T09:25:22.041Z,98803.01
2018-12-08T09:27:49.224Z,98809.99
2018-12-08T09:30:15.518Z,98798.16
2018-12-08T09:32:43.550Z,98791.85
2018-12-08T09:35:09.542Z,98792.40
2018-12-08T09:37:35.494Z,98785.78
2018-12-08T09:40:02.559Z,98783.05
2018-12-08T09:42:28.504Z,98786.67
2018-12-08T09:44:56.555Z,98780.71
2018-12-08T09:47:22.524Z,98777.94
2018-12-08T09:49:48.494Z,98790.62
2018-12-08T09:52:14.453Z,98775.80
2018-12-08T09:59:43.666Z,98764.23
2018-12-08T10:02:09.646Z,98782.41
2018-12-08T10:04:35.616Z,98762.73
2018-12-08T10:07:01.650Z,98759.94
2018-12-08T10:09:27.632Z,98754.00
2018-12-08T10:11:53.584Z,98753.77
2018-12-08T10:14:19.545Z,98747.00
2018-12-08T10:16:45.543Z,98747.02
2018-12-08T10:19:11.581Z,98727.39
2018-12-08T10:21:37.620Z,98747.16
2018-12-08T10:24:03.596Z,98752.41
2018-12-08T10:26:29.564Z,98719.86
2018-12-08T10:28:55.806Z,98716.09
2018-12-08T10:31:21.779Z,98727.13
2018-12-08T10:33:49.804Z,98714.41
2018-12-08T10:36:15.777Z,98705.98
2018-12-08T10:38:41.776Z,98701.80
2018-12-08T10:41:07.745Z,98712.66
2018-12-08T10:43:33.721Z,98707.56
2018-12-08T10:45:59.703Z,98703.39
2018-12-08T10:48:25.649Z,98702.93
2018-12-08T10:50:51.638Z,98700.41
2018-12-08T10:53:17.600Z,98704.94
2018-12-08T10:55:43.586Z,98691.25
2018-12-08T10:58:09.553Z,98690.75
2018-12-08T11:00:35.620Z,98700.83
2018-12-08T11:03:01.565Z,98696.66
2018-12-08T11:05:30.764Z,98685.92
2018-12-08T11:07:56.746Z,98678.23
2018-12-08T11:10:22.772Z,98673.49
2018-12-08T11:12:48.735Z,98677.09
2018-12-08T11:15:14.672Z,98667.17
2018-12-08T11:17:40.625Z,98667.38
2018-12-08T11:20:06.622Z,98659.06
2018-12-08T11:22:32.588Z,98679.17
2018-12-08T11:27:30.341Z,98673.96
2018-12-08T11:30:00.867Z,98676.58
2018-12-08T11:32:26.847Z,98668.13
2018-12-08T11:42:27.437Z,98684.21
2018-12-08T11:44:53.483Z,98668.84
2018-12-08T11:47:19.511Z,98671.33
2018-12-08T11:49:45.464Z,98665.19
2018-12-08T11:52:11.436Z,98673.11
2018-12-08T11:54:37.539Z,98694.09
2018-12-08T11:57:03.499Z,98665.61
2018-12-08T12:02:06.062Z,98683.69
2018-12-08T12:04:32.133Z,98671.47
2018-12-08T12:06:58.116Z,98662.81
2018-12-08T12:09:24.095Z,98656.20
2018-12-08T12:11:50.045Z,98657.52
2018-12-08T12:14:15.990Z,98651.41
2018-12-08T12:21:45.447Z,98634.67
2018-12-08T12:24:11.398Z,98638.64
2018-12-08T12:26:37.414Z,98620.71
2018-12-08T12:29:03.368Z,98622.49
2018-12-08T12:31:29.349Z,98612.91
2018-12-08T12:33:55.292Z,98616.53
2018-12-08T12:36:21.244Z,98611.08
2018-12-08T12:38:47.207Z,98604.52
2018-12-08T12:41:13.193Z,98609.50
2018-12-08T12:43:39.147Z,98604.36
2018-12-08T12:46:05.138Z,98586.05
2018-12-08T12:48:31.115Z,98581.64
2018-12-08T12:50:57.115Z,98578.19
2018-12-08T12:53:23.099Z,98578.77
2018-12-08T12:55:49.049Z,98592.99
2018-12-08T12:58:14.996Z,98590.02
2018-12-08T13:00:40.962Z,98584.81
2018-12-08T13:03:06.922Z,98573.41
2018-12-08T13:05:32.874Z,98580.70
2018-12-08T13:07:58.833Z,98578.02
2018-12-08T13:10:24.772Z,98558.85
2018-12-08T13:12:50.778Z,98549.37
2018-12-08T13:15:16.851Z,98544.03
2018-12-08T13:17:42.916Z,98537.80
2018-12-08T13:20:08.869Z,98551.75
2018-12-08T13:22:34.873Z,98542.94
2018-12-08T13:25:00.824Z,98540.91
2018-12-08T13:27:26.772Z,98543.88
2018-12-08T13:29:52.720Z,98535.05
2018-12-08T13:32:18.696Z,98545.41
2018-12-08T13:34:44.643Z,98527.39
2018-12-08T13:37:10.639Z,98543.13
2018-12-08T13:39:36.586Z,98546.50
2018-12-08T13:42:02.548Z,98545.44
2018-12-08T13:44:28.521Z,98538.33
2018-12-08T13:46:54.490Z,98548.55
2018-12-08T13:49:20.495Z,98546.95
2018-12-08T13:51:46.518Z,98539.80
2018-12-08T13:54:12.480Z,98535.91
2018-12-08T13:56:38.482Z,98540.52
2018-12-08T13:59:04.452Z,98533.95
2018-12-08T14:01:30.417Z,98542.66
2018-12-08T14:03:56.358Z,98539.14
2018-12-08T14:06:23.341Z,98540.45
2018-12-08T14:08:49.263Z,98526.30
2018-12-08T14:11:15.208Z,98531.99
2018-12-08T14:13:41.161Z,98531.13
2018-12-08T14:16:07.124Z,98525.19
2018-12-08T14:18:33.097Z,98528.95
2018-12-08T14:20:59.072Z,98523.67
2018-12-08T14:23:25.061Z,98523.33
2018-12-08T14:25:51.028Z,98531.47
2018-12-08T14:28:16.972Z,98521.41
2018-12-08T14:30:42.932Z,98521.77
2018-12-08T14:33:08.892Z,98556.37
2018-12-08T14:35:34.851Z,98530.48
2018-12-08T14:38:00.831Z,98529.60
2018-12-08T14:40:26.773Z,98526.62
2018-12-08T14:42:52.740Z,98535.17
2018-12-08T14:45:18.669Z,98525.41
2018-12-08T14:47:44.647Z,98532.34
2018-12-08T14:50:10.625Z,98534.59
2018-12-08T14:52:36.620Z,98509.52
2018-12-08T14:55:02.563Z,98534.20
2018-12-08T14:57:28.580Z,98539.90
2018-12-08T14:59:54.516Z,98544.13
2018-12-08T15:02:20.506Z,98548.17
2018-12-08T15:04:46.463Z,98569.38
2018-12-08T15:07:12.454Z,98564.99
2018-12-08T15:09:38.420Z,98573.80
2018-12-08T15:12:04.385Z,98563.48
2018-12-08T15:14:30.328Z,98555.29
2018-12-08T15:16:56.288Z,98560.13
2018-12-08T15:19:22.297Z,98553.03
2018-12-08T15:21:48.249Z,98555.67
2018-12-08T15:24:14.215Z,98562.84
2018-12-08T15:26:40.177Z,98559.17
2018-12-08T15:29:06.147Z,98557.86
2018-12-08T15:31:32.117Z,98550.89
2018-12-08T15:33:58.068Z,98559.44
2018-12-08T15:36:24.006Z,98552.36
2018-12-08T15:38:49.944Z,98551.36
2018-12-08T15:41:15.917Z,98547.92
2018-12-08T15:43:41.891Z,98536.50
2018-12-08T15:46:07.865Z,98537.48
2018-12-08T15:48:33.835Z,98527.87
2018-12-08T15:50:59.831Z,98531.53
2018-12-08T16:06:03.355Z,98532.55
2018-12-08T16:08:29.333Z,98543.95
2018-12-08T16:10:55.286Z,98541.50
2018-12-08T16:13:21.268Z,98542.80
2018-12-08T16:15:47.230Z,98545.95
2018-12-08T16:18:13.186Z,98543.25
2018-12-08T16:20:39.169Z,98542.22
2018-12-08T16:23:05.173Z,98545.52
2018-12-08T16:25:31.147Z,98538.02
2018-12-08T16:27:57.146Z,98540.77
2018-12-08T16:30:23.098Z,98549.94
2018-12-08T16:32:49.057Z,98541.73
2018-12-08T16:35:15.006Z,98534.77
2018-12-08T16:37:41.002Z,98536.97
2018-12-08T16:40:06.946Z,98536.79
2018-12-08T16:42:32.913Z,98526.70
2018-12-08T16:44:58.861Z,98522.00
2018-12-08T16:47:24.827Z,98508.78
2018-12-08T16:49:50.816Z,98507.82
2018-12-08T16:52:16.779Z,98525.36
2018-12-08T16:54:42.721Z,98507.38
2018-12-08T16:57:08.676Z,98506.67
2018-12-08T16:59:34.637Z,98506.87
2018-12-08T17:02:00.604Z,98513.72
2018-12-08T17:04:26.558Z,98514.87
2018-12-08T17:06:52.512Z,98507.65
2018-12-08T17:09:18.471Z,98514.97
2018-12-08T17:11:44.469Z,98508.75
2018-12-08T17:14:10.432Z,98503.08
2018-12-08T17:16:36.374Z,98495.50
2018-12-08T17:19:05.452Z,98499.71
2018-12-08T17:21:31.895Z,98486.42
2018-12-08T17:23:57.843Z,98494.02
2018-12-08T17:26:23.784Z,98492.32
2018-12-08T17:28:49.732Z,98493.22
2018-12-08T17:31:15.697Z,98494.10
2018-12-08T17:33:41.683Z,98491.36
2018-12-08T17:36:08.691Z,98494.10
2018-12-08T17:38:34.736Z,98499.95
2018-12-08T17:43:34.428Z,98479.66
2018-12-08T17:46:00.361Z,98508.63
2018-12-08T17:48:26.336Z,98506.38
2018-12-08T17:50:52.288Z,98505.75
2018-12-08T17:53:18.237Z,98511.48
2018-12-08T17:55:44.199Z,98515.37
2018-12-08T17:58:10.364Z,98508.11
2018-12-08T18:00:38.353Z,98505.92
2018-12-08T18:03:04.337Z,98507.06
2018-12-08T18:05:30.316Z,98498.52
2018-12-08T18:07:56.301Z,98493.47
2018-12-08T18:10:22.236Z,98496.09
2018-12-08T18:12:48.206Z,98494.57
2018-12-08T18:15:14.172Z,98493.03
2018-12-08T18:17:40.143Z,98485.32
2018-12-08T18:20:06.096Z,98489.12
2018-12-08T18:22:32.081Z,98490.05
2018-12-08T18:24:58.177Z,98490.44
2018-12-08T18:27:24.117Z,98476.29
2018-12-08T18:29:50.071Z,98483.00
2018-12-08T18:32:16.052Z,98474.82
2018-12-08T18:34:42.029Z,98483.34
2018-12-08T18:37:07.974Z,98482.38
2018-12-08T18:39:33.918Z,98485.32
2018-12-08T18:42:00.883Z,98485.07
2018-12-08T18:44:31.272Z,98490.59
2018-12-08T18:46:57.221Z,98491.97
2018-12-08T18:49:23.188Z,98497.26
2018-12-08T18:51:49.136Z,98491.02
2018-12-08T18:54:15.289Z,98497.90
2018-12-08T18:56:41.278Z,98486.05
2018-12-08T18:59:07.256Z,98479.96
2018-12-08T19:01:33.215Z,98476.20
2018-12-08T19:03:59.204Z,98480.17
2018-12-08T19:06:25.155Z,98481.18
2018-12-08T19:08:51.206Z,98475.48
2018-12-08T19:11:17.204Z,98460.21
2018-12-08T19:13:43.142Z,98470.08
2018-12-08T19:16:09.088Z,98462.50
2018-12-08T19:18:35.097Z,98468.21
2018-12-08T19:21:01.065Z,98466.71
2018-12-08T19:23:27.897Z,98462.19
2018-12-08T19:25:53.883Z,98460.44
2018-12-08T19:28:21.501Z,98462.07
2018-12-08T19:30:52.278Z,98459.16
2018-12-08T19:33:18.224Z,98452.48
2018-12-08T19:35:46.250Z,98453.42
2018-12-08T19:38:12.202Z,98445.90
2018-12-08T19:40:38.164Z,98443.42
2018-12-08T19:43:04.109Z,98447.56
2018-12-08T19:45:30.047Z,98432.09
2018-12-08T19:47:56.003Z,98433.55
2018-12-08T19:50:21.979Z,98433.14
2018-12-08T19:52:47.916Z,98429.23
2018-12-08T19:55:14.788Z,98429.13
2018-12-08T19:57:40.741Z,98416.23
2018-12-08T20:00:06.692Z,98411.69
2018-12-08T20:02:32.655Z,98407.60
2018-12-08T20:04:59.456Z,98395.73
2018-12-08T20:07:25.443Z,98387.37
2018-12-08T20:09:51.457Z,98391.25
2018-12-08T20:12:18.637Z,98392.83
2018-12-08T20:14:44.928Z,98390.14
2018-12-08T20:17:10.945Z,98381.47
2018-12-08T20:19:36.991Z,98382.78
2018-12-08T20:22:02.932Z,98371.52
2018-12-08T20:24:28.902Z,98366.30
2018-12-08T20:26:54.878Z,98360.73
2018-12-08T20:29:20.850Z,98356.28
2018-12-08T20:31:46.849Z,98350.70
2018-12-08T20:34:12.793Z,98350.84
2018-12-08T20:36:38.804Z,98348.39
2018-12-08T20:39:04.775Z,98335.69
2018-12-08T20:44:03.042Z,98329.40
2018-12-08T20:46:29.013Z,98326.77
2018-12-08T20:48:54.982Z,98322.56
2018-12-08T20:51:20.957Z,98328.32
2018-12-08T20:53:46.900Z,98317.81
2018-12-08T20:56:12.993Z,98318.34
2018-12-08T20:58:39.945Z,98312.43
2018-12-08T21:01:05.887Z,98306.66
2018-12-08T21:03:31.851Z,98299.53
2018-12-08T21:05:57.792Z,98293.06
2018-12-08T21:08:23.755Z,98280.34
2018-12-08T21:10:49.743Z,98289.22
2018-12-08T21:13:15.728Z,98278.80
2018-12-08T21:15:43.815Z,98283.15
2018-12-08T21:18:09.798Z,98276.91
2018-12-08T21:20:35.788Z,98271.84
2018-12-08T21:23:01.751Z,98270.64
2018-12-08T21:25:27.742Z,98269.98
2018-12-08T21:27:53.743Z,98260.25
2018-12-08T21:30:19.682Z,98256.05
2018-12-08T21:32:45.632Z,98246.68
2018-12-08T21:35:11.582Z,98249.03
2018-12-08T21:37:37.524Z,98239.73
2018-12-08T21:40:05.021Z,98241.77
2018-12-08T21:42:31.009Z,98241.21
2018-12-08T21:45:01.829Z,98237.94
2018-12-08T21:47:27.808Z,98239.02
2018-12-08T21:49:53.759Z,98232.16
2018-12-08T21:52:19.715Z,98222.67
2018-12-08T21:54:45.711Z,98227.12
2018-12-08T21:57:11.726Z,98220.26
2018-12-08T22:04:40.380Z,98197.95
2018-12-08T22:07:06.319Z,98197.72
2018-12-08T22:09:32.962Z,98187.81
2018-12-08T22:11:58.941Z,98183.33
2018-12-08T22:14:24.973Z,98176.36
2018-12-08T22:16:51.006Z,98173.63
2018-12-08T22:19:17.162Z,98165.85
2018-12-08T22:21:43.280Z,98160.16
2018-12-08T22:24:09.236Z,98162.75
2018-12-08T22:26:35.215Z,98156.47
2018-12-08T22:29:01.283Z,98144.05
2018-12-08T22:33:59.925Z,98117.98
2018-12-08T22:36:25.942Z,98123.84
2018-12-08T22:38:51.919Z,98117.25
2018-12-08T22:41:17.926Z,98116.47
2018-12-08T22:43:43.869Z,98096.44
2018-12-08T22:46:09.859Z,98097.52
2018-12-08T22:48:35.822Z,98091.43
2018-12-08T22:51:02.742Z,98072.27
2018-12-08T22:53:28.704Z,98073.08
2018-12-08T22:55:54.641Z,98069.70
2018-12-08T22:58:20.600Z,98056.47
2018-12-08T23:00:46.543Z,98049.41
2018-12-08T23:03:12.489Z,98044.61
2018-12-08T23:05:38.428Z,98034.92
2018-12-08T23:08:04.368Z,98026.87
2018-12-08T23:10:30.302Z,98021.59
2018-12-08T23:12:56.274Z,98014.54
2018-12-08T23:15:22.251Z,98001.87
2018-12-08T23:17:48.232Z,97979.84
2018-12-08T23:20:14.180Z,97981.59
2018-12-08T23:22:40.148Z,97966.67
2018-12-08T23:25:06.087Z,97974.48
2018-12-08T23:27:32.035Z,97967.05
2018-12-08T23:29:57.979Z,97948.65
2018-12-08T23:32:23.932Z,97949.97
2018-12-08T23:34:49.869Z,97941.16
2018-12-08T23:37:15.808Z,97937.25
2018-12-08T23:39:41.771Z,97929.28
2018-12-08T23:42:07.727Z,97919.02
2018-12-08T23:44:33.680Z,97910.32
2018-12-08T23:46:59.706Z,97898.18
2018-12-08T23:49:25.646Z,97885.07
2018-12-08T23:51:51.593Z,97888.04
2018-12-08T23:54:17.546Z,97879.99
2018-12-08T23:56:43.505Z,97883.56
2018-12-08T23:59:09.468Z,97870.53
